Time;durP1;ratioP1;P1;durP2;ratioP2;P2;SDS_P1;SDS_P2;PMS_P1;PMS_P2;Temp;Humidity;BMP_temperature;BMP_pressure;BME280_temperature;BME280_humidity;BME280_pressure;Samples;Min_cycle;Max_cycle;Signal;HPM_P1;HPM_P2
2023/11/13 00:01:15;;;;;;;13.80;8.57;;;;;;;7.85;74.42;99098.38;5030387;28;20486;-81
2023/11/13 00:03:42;;;;;;;11.65;7.13;;;;;;;7.85;74.17;99093.94;5030940;28;20077;-81
2023/11/13 00:06:09;;;;;;;11.75;7.90;;;;;;;7.86;74.54;99087.81;5030695;28;20141;-82
2023/11/13 00:08:35;;;;;;;12.40;7.75;;;;;;;7.85;74.22;99091.31;5030460;28;20049;-81
2023/11/13 00:11:03;;;;;;;14.07;7.53;;;;;;;7.85;74.30;99078.22;5029154;28;20045;-80
2023/11/13 00:13:30;;;;;;;11.70;7.72;;;;;;;7.85;74.02;99083.47;5030566;28;20510;-80
2023/11/13 00:15:57;;;;;;;11.70;7.55;;;;;;;7.85;74.38;99086.09;5029264;28;20080;-81
2023/11/13 00:18:25;;;;;;;12.77;7.80;;;;;;;7.82;74.26;99076.63;5030695;28;20092;-82
2023/11/13 00:20:52;;;;;;;14.82;8.05;;;;;;;7.82;73.86;99079.25;5030014;28;20084;-81
2023/11/13 00:23:18;;;;;;;11.50;7.53;;;;;;;7.82;74.06;99094.16;5030517;28;20501;-80
2023/11/13 00:25:45;;;;;;;12.65;7.60;;;;;;;7.81;73.95;99097.66;5030786;28;20413;-80
2023/11/13 00:28:11;;;;;;;10.30;7.22;;;;;;;7.80;73.79;99098.59;5029389;28;20144;-81
2023/11/13 00:30:38;;;;;;;15.00;8.68;;;;;;;7.76;73.67;99104.94;5031623;28;20789;-80
2023/11/13 00:33:04;;;;;;;11.30;7.60;;;;;;;7.74;73.60;99091.09;5033788;28;20529;-82
2023/11/13 00:35:31;;;;;;;13.75;7.50;;;;;;;7.70;73.90;99082.56;5033994;28;20056;-80
2023/11/13 00:37:57;;;;;;;12.15;7.68;;;;;;;7.68;73.71;99071.34;5034340;28;20107;-81
2023/11/13 00:40:24;;;;;;;10.10;6.72;;;;;;;7.65;74.17;99067.09;5034080;28;20111;-81
2023/11/13 00:42:51;;;;;;;9.63;6.90;;;;;;;7.63;73.73;99071.56;5033866;28;20045;-80
2023/11/13 00:45:18;;;;;;;11.20;7.18;;;;;;;7.61;73.96;99060.34;5033827;28;20053;-81
2023/11/13 00:47:45;;;;;;;12.07;7.70;;;;;;;7.61;73.89;99056.88;5033861;28;20160;-82
2023/11/13 00:50:12;;;;;;;14.13;6.82;;;;;;;7.58;73.86;99060.53;5032306;28;20046;-82
2023/11/13 00:52:39;;;;;;;10.25;6.72;;;;;;;7.57;73.86;99069.31;5033685;28;20049;-80
2023/11/13 00:55:06;;;;;;;12.65;7.57;;;;;;;7.56;73.46;99065.00;5033890;28;20509;-80
2023/11/13 00:57:32;;;;;;;11.18;6.88;;;;;;;7.54;73.39;99074.72;5033900;28;20081;-82
2023/11/13 00:59:59;;;;;;;14.45;7.68;;;;;;;7.51;73.54;99073.09;5033870;28;20068;-80
2023/11/13 01:02:25;;;;;;;11.48;7.18;;;;;;;7.49;73.67;99061.03;5033146;28;20057;-81
2023/11/13 01:04:52;;;;;;;11.35;7.47;;;;;;;7.47;73.38;99060.28;5033670;28;20587;-80
2023/11/13 01:07:19;;;;;;;11.98;7.10;;;;;;;7.46;73.63;99050.72;5032548;28;20136;-81
2023/11/13 01:09:46;;;;;;;12.15;6.65;;;;;;;7.43;73.69;99056.97;5033605;28;20050;-80
2023/11/13 01:12:12;;;;;;;12.13;6.80;;;;;;;7.41;73.49;99067.53;5033113;28;20046;-80
2023/11/13 01:14:39;;;;;;;11.15;7.18;;;;;;;7.40;73.55;99070.25;5033322;28;20545;-81
2023/11/13 01:17:05;;;;;;;15.68;8.32;;;;;;;7.39;73.44;99065.94;5033251;28;20137;-81
2023/11/13 01:19:32;;;;;;;15.20;7.00;;;;;;;7.36;73.09;99060.88;5033257;28;20099;-80
2023/11/13 01:21:59;;;;;;;10.43;7.03;;;;;;;7.33;73.57;99058.41;5031644;28;20049;-82
2023/11/13 01:24:25;;;;;;;10.15;6.68;;;;;;;7.31;73.59;99058.50;5014045;28;20108;-81
2023/11/13 01:26:53;;;;;;;10.90;6.47;;;;;;;7.28;73.71;99050.81;5022810;28;20087;-82
2023/11/13 01:29:19;;;;;;;13.32;7.43;;;;;;;7.26;73.54;99043.03;5033272;28;20049;-81
2023/11/13 01:31:46;;;;;;;11.38;6.97;;;;;;;7.26;73.60;99031.75;5032626;28;20148;-81
2023/11/13 01:34:12;;;;;;;11.23;7.13;;;;;;;7.24;73.90;99020.50;5032054;28;20060;-81
2023/11/13 01:36:39;;;;;;;10.20;6.30;;;;;;;7.24;73.62;99023.97;5032863;28;20493;-81
2023/11/13 01:39:07;;;;;;;12.85;7.22;;;;;;;7.21;73.47;99026.75;5031775;28;20442;-81
2023/11/13 01:41:34;;;;;;;11.43;6.93;;;;;;;7.22;73.87;99038.06;5032338;28;20136;-81
2023/11/13 01:44:01;;;;;;;11.70;7.15;;;;;;;7.19;73.79;99039.09;5032850;28;20136;-83
2023/11/13 01:46:31;;;;;;;8.98;6.70;;;;;;;7.16;73.61;99031.38;5032577;28;20576;-81
2023/11/13 01:48:59;;;;;;;13.70;7.03;;;;;;;7.14;73.69;99021.00;5012879;28;20053;-81
2023/11/13 01:51:26;;;;;;;10.43;6.57;;;;;;;7.13;73.83;99027.16;5019817;28;20049;-82
2023/11/13 01:53:54;;;;;;;10.40;5.75;;;;;;;7.12;73.83;99024.63;5032765;28;20049;-82
2023/11/13 01:56:24;;;;;;;11.82;6.90;;;;;;;7.10;74.08;99019.47;5032692;28;20080;-81
2023/11/13 01:58:55;;;;;;;9.75;6.05;;;;;;;7.08;73.72;99017.88;5032482;28;20045;-81
2023/11/13 02:01:25;;;;;;;10.07;6.65;;;;;;;7.09;73.87;99020.41;5032556;28;20091;-82
2023/11/13 02:03:55;;;;;;;10.07;6.40;;;;;;;7.10;74.00;99014.25;5032971;28;20046;-81
2023/11/13 02:06:24;;;;;;;11.93;6.05;;;;;;;7.08;74.29;99010.88;5032581;28;20056;-81
2023/11/13 02:08:51;;;;;;;13.65;6.25;;;;;;;7.07;74.17;99003.97;5032195;28;20166;-81
2023/11/13 02:11:19;;;;;;;11.88;6.18;;;;;;;7.08;74.01;99002.19;5032088;28;20077;-80
2023/11/13 02:13:47;;;;;;;10.48;6.10;;;;;;;7.07;73.82;98996.13;5032434;28;20103;-81
2023/11/13 02:16:15;;;;;;;8.60;5.50;;;;;;;7.06;73.82;99007.50;5032661;28;20072;-81
2023/11/13 02:18:41;;;;;;;11.15;5.55;;;;;;;7.07;73.83;99009.19;5031771;28;20133;-81
2023/11/13 02:21:08;;;;;;;9.30;5.28;;;;;;;7.07;74.23;99008.34;5030800;28;20053;-81
2023/11/13 02:23:35;;;;;;;7.10;5.75;;;;;;;7.06;74.03;99010.09;5032150;28;20045;-82
2023/11/13 02:26:13;;;;;;;12.20;6.15;;;;;;;7.02;73.40;99003.34;5031834;28;20504;-83
2023/11/13 02:28:39;;;;;;;10.13;6.03;;;;;;;7.05;74.02;99021.50;5031915;28;20064;-81
2023/11/13 02:31:06;;;;;;;9.10;5.20;;;;;;;7.04;74.15;99012.81;5031721;28;20045;-84
2023/11/13 02:33:32;;;;;;;7.60;5.05;;;;;;;7.04;73.82;99019.81;5032021;28;20056;-81
2023/11/13 02:35:59;;;;;;;8.85;5.50;;;;;;;7.03;74.41;99031.22;5031851;28;20139;-81
2023/11/13 02:38:26;;;;;;;8.25;5.50;;;;;;;7.02;74.08;99011.19;5031507;28;20045;-81
2023/11/13 02:40:52;;;;;;;12.68;5.82;;;;;;;7.03;74.35;99015.53;5031688;28;20141;-82
2023/11/13 02:43:19;;;;;;;10.68;5.50;;;;;;;7.04;73.88;99004.13;5031522;28;20136;-82
2023/11/13 02:45:45;;;;;;;8.93;5.45;;;;;;;7.04;74.21;98998.88;5031814;28;20135;-81
2023/11/13 02:48:12;;;;;;;10.13;5.50;;;;;;;7.05;74.19;98992.72;5031757;28;20067;-81
2023/11/13 02:50:40;;;;;;;9.52;5.38;;;;;;;7.06;74.22;98983.94;5031291;28;20466;-83
2023/11/13 02:53:06;;;;;;;7.45;5.15;;;;;;;7.08;74.45;98996.94;5031034;28;20132;-81
2023/11/13 02:55:32;;;;;;;10.93;5.57;;;;;;;7.08;74.16;98989.09;5030879;28;20129;-81
2023/11/13 02:57:59;;;;;;;6.88;5.00;;;;;;;7.09;74.19;98982.91;5031679;28;20054;-81
2023/11/13 03:00:26;;;;;;;10.15;5.32;;;;;;;7.09;74.01;98981.16;5031544;28;20131;-82
2023/11/13 03:02:52;;;;;;;10.30;5.15;;;;;;;7.10;73.93;98990.69;5031241;28;20111;-82
2023/11/13 03:05:19;;;;;;;11.55;5.35;;;;;;;7.11;74.03;98983.69;5031336;28;20132;-80
2023/11/13 03:07:45;;;;;;;9.27;5.32;;;;;;;7.11;74.19;98984.53;5030880;28;20084;-81
2023/11/13 03:10:12;;;;;;;10.32;5.00;;;;;;;7.12;73.82;98990.63;5031152;28;20107;-81
2023/11/13 03:12:42;;;;;;;7.28;4.97;;;;;;;7.13;74.03;98987.06;5031126;28;20060;-82
2023/11/13 03:15:12;;;;;;;7.72;5.35;;;;;;;7.12;73.72;98991.47;5031090;28;20077;-83
2023/11/13 03:17:38;;;;;;;10.27;5.22;;;;;;;7.13;73.98;98987.06;5031318;28;20128;-81
2023/11/13 03:20:06;;;;;;;11.32;5.15;;;;;;;7.13;73.97;98985.28;5031045;28;20057;-80
2023/11/13 03:22:33;;;;;;;13.55;5.28;;;;;;;7.14;74.18;98983.53;5031470;28;20052;-80
2023/11/13 03:25:00;;;;;;;10.38;5.97;;;;;;;7.13;74.18;98966.97;5030874;28;20498;-81
2023/11/13 03:27:27;;;;;;;7.35;4.88;;;;;;;7.14;74.40;98968.66;5030897;28;20478;-81
2023/11/13 03:29:53;;;;;;;9.88;4.63;;;;;;;7.15;74.35;98965.09;5029760;28;20049;-81
2023/11/13 03:32:20;;;;;;;6.78;5.00;;;;;;;7.17;74.47;98963.25;5030920;28;20064;-81
2023/11/13 03:34:46;;;;;;;8.73;4.80;;;;;;;7.18;74.15;98961.50;5030916;28;20053;-82
2023/11/13 03:37:13;;;;;;;10.80;5.47;;;;;;;7.19;74.56;98964.94;5029651;28;20474;-80
2023/11/13 03:39:40;;;;;;;8.73;5.22;;;;;;;7.19;74.00;98971.03;5030663;28;20049;-82
2023/11/13 03:42:09;;;;;;;9.90;5.57;;;;;;;7.21;74.24;98979.63;5030851;28;20123;-81
2023/11/13 03:44:35;;;;;;;6.45;5.00;;;;;;;7.22;74.14;98983.09;5031132;28;20053;-81
2023/11/13 03:47:02;;;;;;;8.82;4.78;;;;;;;7.23;74.04;98984.78;5030552;28;20125;-81
2023/11/13 03:49:28;;;;;;;8.25;5.45;;;;;;;7.24;74.05;98983.84;5029560;28;20151;-81
2023/11/13 03:51:55;;;;;;;7.65;4.68;;;;;;;7.25;74.37;98990.78;5030745;28;20071;-82
2023/11/13 03:54:22;;;;;;;8.10;4.65;;;;;;;7.26;74.39;98989.84;5030858;28;20050;-80
2023/11/13 03:56:48;;;;;;;7.00;4.63;;;;;;;7.26;74.49;98982.00;5030634;28;20042;-81
2023/11/13 03:59:15;;;;;;;9.02;4.72;;;;;;;7.27;74.35;98968.84;5030724;28;20520;-82
2023/11/13 04:01:46;;;;;;;7.70;5.18;;;;;;;7.27;73.84;98970.59;5030326;28;20484;-82
2023/11/13 04:04:13;;;;;;;8.20;4.45;;;;;;;7.29;74.35;98966.13;5031025;28;20049;-80
2023/11/13 04:06:39;;;;;;;9.13;5.28;;;;;;;7.30;74.41;98967.81;5032697;28;20050;-81
2023/11/13 04:09:07;;;;;;;8.15;4.57;;;;;;;7.33;74.29;98966.78;5033299;28;20168;-81
2023/11/13 04:11:33;;;;;;;7.60;4.25;;;;;;;7.34;74.43;98963.25;5034532;28;20088;-81
2023/11/13 04:14:00;;;;;;;8.63;4.72;;;;;;;7.34;74.48;98964.09;5034833;28;20049;-80
2023/11/13 04:16:26;;;;;;;7.00;4.75;;;;;;;7.35;74.47;98963.16;5034252;28;20445;-82
2023/11/13 04:18:53;;;;;;;8.10;4.63;;;;;;;7.36;74.37;98967.44;5034111;28;20521;-82
2023/11/13 04:21:19;;;;;;;6.50;4.53;;;;;;;7.38;74.66;98959.50;5034226;28;20049;-82
2023/11/13 04:23:46;;;;;;;11.00;4.90;;;;;;;7.38;74.33;98952.50;5034491;28;20481;-81
2023/11/13 04:26:12;;;;;;;5.63;4.32;;;;;;;7.39;74.52;98941.09;5034367;28;20049;-81
2023/11/13 04:28:39;;;;;;;11.30;4.47;;;;;;;7.40;74.24;98936.72;5033678;28;20107;-80
2023/11/13 04:31:08;;;;;;;8.82;5.00;;;;;;;7.41;74.44;98934.00;5032628;28;20482;-82
2023/11/13 04:33:35;;;;;;;7.13;4.20;;;;;;;7.43;74.59;98940.00;5033163;28;20076;-81
2023/11/13 04:36:02;;;;;;;7.63;4.68;;;;;;;7.44;74.55;98940.81;5034403;28;20041;-80
2023/11/13 04:38:29;;;;;;;7.97;4.32;;;;;;;7.45;74.72;98942.53;5033818;28;20049;-80
2023/11/13 04:40:56;;;;;;;6.40;4.30;;;;;;;7.47;74.50;98950.31;5034103;28;20053;-82
2023/11/13 04:43:22;;;;;;;11.32;4.40;;;;;;;7.48;74.60;98955.44;5032862;28;20480;-81
2023/11/13 04:45:50;;;;;;;8.70;4.70;;;;;;;7.49;74.64;98969.38;5032697;28;20128;-81
2023/11/13 04:48:16;;;;;;;6.82;3.80;;;;;;;7.48;74.72;98965.91;5033813;28;20053;-82
2023/11/13 04:50:43;;;;;;;9.68;4.28;;;;;;;7.52;74.42;98969.22;5032770;28;20391;-80
2023/11/13 04:53:09;;;;;;;5.80;4.05;;;;;;;7.52;74.46;98964.81;5032363;28;20148;-80
2023/11/13 04:55:35;;;;;;;10.90;3.90;;;;;;;7.55;74.36;98963.78;5032651;28;20049;-80
2023/11/13 04:58:02;;;;;;;6.28;4.05;;;;;;;7.55;74.31;98963.78;5033398;28;20068;-80
2023/11/13 05:00:28;;;;;;;9.25;4.30;;;;;;;7.56;74.61;98960.25;5033980;28;20049;-81
2023/11/13 05:02:55;;;;;;;7.53;3.90;;;;;;;7.56;74.63;98955.84;5033596;28;20137;-80
2023/11/13 05:05:21;;;;;;;7.45;3.70;;;;;;;7.58;74.52;98955.75;5033839;28;20067;-81
2023/11/13 05:07:48;;;;;;;5.65;3.83;;;;;;;7.58;74.77;98955.75;5033507;28;20476;-80
2023/11/13 05:10:14;;;;;;;4.45;3.35;;;;;;;7.60;75.03;98943.44;5031956;28;20052;-82
2023/11/13 05:12:41;;;;;;;6.40;3.63;;;;;;;7.60;75.06;98932.94;5033065;28;20056;-81
2023/11/13 05:15:08;;;;;;;10.60;3.50;;;;;;;7.61;74.58;98918.91;5033729;28;20128;-81
2023/11/13 05:17:38;;;;;;;9.25;3.92;;;;;;;7.64;74.76;98913.50;5032490;28;20049;-81
2023/11/13 05:20:06;;;;;;;6.60;3.72;;;;;;;7.66;74.59;98906.38;5033068;28;20159;-81
2023/11/13 05:22:33;;;;;;;11.00;4.40;;;;;;;7.66;74.63;98895.91;5032020;28;20192;-80
2023/11/13 05:25:00;;;;;;;9.30;3.72;;;;;;;7.68;74.70;98887.97;5033270;28;20053;-80
2023/11/13 05:27:27;;;;;;;7.20;3.38;;;;;;;7.68;74.46;98878.34;5031906;28;20062;-81
2023/11/13 05:29:53;;;;;;;4.93;3.40;;;;;;;7.69;74.62;98869.53;5033165;28;20053;-80
2023/11/13 05:32:20;;;;;;;7.82;3.30;;;;;;;7.71;74.58;98855.50;5013087;28;20096;-81
2023/11/13 05:34:46;;;;;;;7.05;3.65;;;;;;;7.69;74.24;98848.59;5019337;28;20069;-80
2023/11/13 05:37:13;;;;;;;6.85;3.38;;;;;;;7.70;74.18;98857.28;5031239;28;20041;-80
2023/11/13 05:39:40;;;;;;;6.35;4.03;;;;;;;7.71;74.26;98852.88;5031705;28;20482;-81
2023/11/13 05:42:06;;;;;;;5.88;3.28;;;;;;;7.71;74.32;98852.88;5032921;28;20517;-81
2023/11/13 05:44:35;;;;;;;5.57;2.88;;;;;;;7.71;74.48;98850.28;5033273;28;20476;-80
2023/11/13 05:47:03;;;;;;;4.05;2.95;;;;;;;7.72;74.19;98841.47;5031542;28;20107;-82
2023/11/13 05:49:30;;;;;;;4.50;3.17;;;;;;;7.72;74.40;98836.22;5032769;28;20330;-81
2023/11/13 05:51:57;;;;;;;5.40;2.95;;;;;;;7.72;74.30;98831.00;5032054;28;20422;-81
2023/11/13 05:54:24;;;;;;;5.93;3.10;;;;;;;7.72;74.60;98833.59;5031593;28;20107;-80
2023/11/13 05:56:51;;;;;;;4.95;3.15;;;;;;;7.72;74.66;98825.75;5031813;28;20095;-81
2023/11/13 05:59:17;;;;;;;4.50;2.92;;;;;;;7.73;74.43;98822.22;5032830;28;20056;-80
2023/11/13 06:01:44;;;;;;;4.53;2.78;;;;;;;7.73;74.09;98812.56;5032432;28;20132;-80
2023/11/13 06:04:10;;;;;;;6.18;3.45;;;;;;;7.75;74.11;98807.22;5032668;28;20045;-81
2023/11/13 06:06:37;;;;;;;3.90;3.13;;;;;;;7.74;74.19;98806.38;5031889;28;20565;-83
2023/11/13 06:09:04;;;;;;;5.38;2.75;;;;;;;7.74;74.02;98802.94;5032198;28;20099;-79
2023/11/13 06:11:32;;;;;;;5.68;3.03;;;;;;;7.75;74.14;98815.09;5031945;28;20055;-80
2023/11/13 06:13:59;;;;;;;4.35;2.85;;;;;;;7.73;74.32;98793.41;5032101;28;20128;-81
2023/11/13 06:16:26;;;;;;;5.00;2.63;;;;;;;7.74;74.15;98788.03;5031404;28;20140;-80
2023/11/13 06:18:53;;;;;;;4.63;2.85;;;;;;;7.75;74.10;98796.75;5031413;28;20053;-80
2023/11/13 06:21:21;;;;;;;4.50;3.13;;;;;;;7.75;74.46;98804.63;5031147;28;20138;-80
2023/11/13 06:23:48;;;;;;;5.65;3.08;;;;;;;7.75;74.52;98808.09;5030827;28;20049;-80
2023/11/13 06:26:14;;;;;;;5.35;2.83;;;;;;;7.76;74.42;98811.53;5031515;28;20512;-80
2023/11/13 06:28:41;;;;;;;5.43;3.17;;;;;;;7.77;74.25;98810.59;5031633;28;20088;-80
2023/11/13 06:31:09;;;;;;;4.75;3.35;;;;;;;7.77;74.47;98811.44;5031471;28;20049;-81
2023/11/13 06:33:36;;;;;;;7.47;3.72;;;;;;;7.78;74.50;98813.13;5031934;28;20060;-81
2023/11/13 06:36:10;;;;;;;6.38;3.08;;;;;;;7.79;73.72;98803.50;5031481;28;20053;-81
2023/11/13 06:38:37;;;;;;;6.10;3.15;;;;;;;7.81;74.56;98799.00;5031752;28;20137;-81
2023/11/13 06:41:04;;;;;;;7.22;3.35;;;;;;;7.84;74.47;98808.47;5031689;28;20144;-81
2023/11/13 06:43:32;;;;;;;4.00;2.88;;;;;;;7.84;74.32;98811.09;5031750;28;20046;-81
2023/11/13 06:45:59;;;;;;;4.13;3.00;;;;;;;7.85;74.30;98810.97;5030434;28;20077;-80
2023/11/13 06:48:26;;;;;;;4.65;3.03;;;;;;;7.87;74.38;98818.75;5031066;28;20046;-79
2023/11/13 06:50:52;;;;;;;7.40;3.60;;;;;;;7.87;73.98;98830.06;5030988;28;20564;-84
2023/11/13 06:53:19;;;;;;;8.77;3.70;;;;;;;7.88;74.15;98825.66;5031394;28;20049;-81
2023/11/13 06:55:45;;;;;;;5.10;3.72;;;;;;;7.89;74.14;98833.44;5031493;28;20107;-80
2023/11/13 06:58:12;;;;;;;5.97;3.10;;;;;;;7.90;74.52;98831.66;5031045;28;20147;-79
2023/11/13 07:00:38;;;;;;;6.90;3.33;;;;;;;7.89;74.51;98825.56;5031482;28;20171;-81
2023/11/13 07:03:05;;;;;;;5.45;3.38;;;;;;;7.91;74.65;98833.34;5030488;28;20128;-81
2023/11/13 07:05:31;;;;;;;5.45;3.25;;;;;;;7.92;74.39;98828.00;5030250;28;20095;-81
2023/11/13 07:07:59;;;;;;;4.30;2.90;;;;;;;7.93;74.44;98819.19;5010504;28;20450;-80
2023/11/13 07:10:26;;;;;;;5.32;3.20;;;;;;;7.96;74.31;98812.94;5010344;28;20054;-81
2023/11/13 07:12:53;;;;;;;7.45;3.90;;;;;;;7.98;74.71;98811.06;5014982;28;20049;-81
2023/11/13 07:15:20;;;;;;;9.23;3.67;;;;;;;7.99;74.54;98807.50;5030955;28;20134;-81
2023/11/13 07:17:46;;;;;;;4.45;3.10;;;;;;;8.01;74.68;98807.41;5029489;28;20049;-81
2023/11/13 07:20:13;;;;;;;6.43;3.40;;;;;;;8.02;74.52;98804.72;5030081;28;20502;-81
2023/11/13 07:22:40;;;;;;;8.93;3.28;;;;;;;8.05;74.58;98795.81;5030842;28;20049;-81
2023/11/13 07:25:07;;;;;;;6.60;3.70;;;;;;;8.07;74.51;98793.91;5030703;28;20577;-80
2023/11/13 07:27:34;;;;;;;8.02;3.80;;;;;;;8.11;74.69;98795.41;5030580;28;20052;-80
2023/11/13 07:30:01;;;;;;;5.10;3.72;;;;;;;8.13;74.54;98788.31;5030851;28;20057;-80
2023/11/13 07:32:27;;;;;;;4.78;3.65;;;;;;;8.17;74.73;98787.19;5029908;28;20049;-81
2023/11/13 07:34:54;;;;;;;6.05;3.65;;;;;;;8.19;74.93;98777.44;5030758;28;20053;-80
2023/11/13 07:37:24;;;;;;;6.97;3.83;;;;;;;8.21;74.20;98778.19;5029177;28;20084;-80
2023/11/13 07:39:51;;;;;;;5.88;3.45;;;;;;;8.25;74.87;98768.34;5030274;28;20080;-80
2023/11/13 07:42:18;;;;;;;8.70;3.65;;;;;;;8.27;74.77;98760.38;5030444;28;20129;-81
2023/11/13 07:44:49;;;;;;;5.20;3.85;;;;;;;8.29;74.82;98751.47;5030376;28;20140;-81
2023/11/13 07:47:16;;;;;;;5.43;3.85;;;;;;;8.32;74.33;98747.81;5030945;28;20095;-81
2023/11/13 07:49:44;;;;;;;8.52;4.38;;;;;;;8.33;74.37;98737.22;5029543;28;20117;-80
2023/11/13 07:52:12;;;;;;;6.07;3.97;;;;;;;8.36;74.71;98749.31;5030483;28;20049;-82
2023/11/13 07:54:40;;;;;;;5.57;4.20;;;;;;;8.38;74.87;98747.44;5030831;28;20049;-81
2023/11/13 07:57:09;;;;;;;8.00;4.28;;;;;;;8.40;74.52;98748.16;5030287;28;20520;-82
2023/11/13 07:59:37;;;;;;;7.97;5.00;;;;;;;8.44;74.79;98743.56;5030680;28;20054;-82
2023/11/13 08:02:04;;;;;;;8.00;5.03;;;;;;;8.48;74.59;98729.31;5030440;28;20084;-81
2023/11/13 08:04:31;;;;;;;6.13;4.70;;;;;;;8.49;74.76;98723.13;5029548;28;20081;-80
2023/11/13 08:06:58;;;;;;;6.88;5.28;;;;;;;8.53;74.92;98716.78;5029946;28;20399;-81
2023/11/13 08:09:35;;;;;;;12.55;5.47;;;;;;;8.56;74.84;98721.00;5030562;28;20088;-81
2023/11/13 08:12:01;;;;;;;9.63;5.95;;;;;;;8.58;74.87;98724.34;5030097;28;20060;-81
2023/11/13 08:14:28;;;;;;;8.73;5.20;;;;;;;8.59;74.98;98721.63;5029501;28;20096;-81
2023/11/13 08:16:55;;;;;;;8.23;5.45;;;;;;;8.63;74.78;98722.25;5030294;28;20072;-81
2023/11/13 08:19:24;;;;;;;11.02;5.90;;;;;;;8.64;75.02;98718.69;5030718;28;20064;-80
2023/11/13 08:21:50;;;;;;;8.90;6.38;;;;;;;8.65;75.05;98696.78;5030287;28;20099;-81
2023/11/13 08:24:19;;;;;;;10.10;6.30;;;;;;;8.68;74.81;98693.09;5030112;28;20065;-81
2023/11/13 08:26:46;;;;;;;9.57;6.40;;;;;;;8.69;74.98;98695.63;5030367;28;20569;-81
2023/11/13 08:29:15;;;;;;;8.48;6.13;;;;;;;8.71;75.43;98679.78;5029407;28;20053;-81
2023/11/13 08:31:42;;;;;;;10.93;6.82;;;;;;;8.71;75.18;98667.50;5029062;28;20077;-81
2023/11/13 08:34:09;;;;;;;7.15;6.20;;;;;;;8.73;75.18;98665.63;5030662;28;20049;-82
2023/11/13 08:36:36;;;;;;;11.00;6.50;;;;;;;8.75;75.13;98669.91;5030582;28;20091;-80
2023/11/13 08:39:02;;;;;;;7.68;6.25;;;;;;;8.77;75.39;98673.25;5030007;28;20128;-81
2023/11/13 08:41:32;;;;;;;9.48;6.07;;;;;;;8.78;75.45;98660.03;5140446;22;20156;-77
2023/11/13 08:44:00;;;;;;;9.18;6.20;;;;;;;8.81;75.52;98648.50;5030319;28;20103;-76
2023/11/13 08:46:26;;;;;;;9.88;5.90;;;;;;;8.83;75.50;98641.38;5030484;28;20076;-74
2023/11/13 08:48:54;;;;;;;9.20;5.97;;;;;;;8.85;75.80;98645.56;5030710;28;20060;-74
2023/11/13 08:51:24;;;;;;;7.05;5.63;;;;;;;8.88;75.53;98633.19;5030357;28;20103;-77
2023/11/13 08:53:50;;;;;;;7.75;5.68;;;;;;;8.92;75.92;98637.28;5033753;28;20088;-76
2023/11/13 08:56:16;;;;;;;7.78;5.97;;;;;;;8.94;76.05;98630.97;5033924;28;20472;-75
2023/11/13 08:58:43;;;;;;;7.28;5.78;;;;;;;8.97;75.97;98630.78;5034249;28;20104;-77
2023/11/13 09:01:11;;;;;;;8.23;6.03;;;;;;;8.99;75.78;98634.16;5034044;28;20132;-78
2023/11/13 09:03:39;;;;;;;9.60;6.32;;;;;;;9.02;76.06;98640.97;5033603;28;20115;-75
2023/11/13 09:06:13;;;;;;;5.82;5.05;;;;;;;9.06;76.21;98644.22;5033102;28;20049;-74
2023/11/13 09:08:42;;;;;;;9.07;6.32;;;;;;;9.08;75.78;98639.72;5032648;28;20442;-75
2023/11/13 09:11:09;;;;;;;7.00;5.43;;;;;;;9.10;75.92;98640.44;5033288;28;20084;-81
2023/11/13 09:13:35;;;;;;;6.60;5.38;;;;;;;9.12;75.81;98638.53;5015567;28;20140;-79
2023/11/13 09:16:05;;;;;;;7.10;5.55;;;;;;;9.13;75.82;98638.41;5033348;28;20050;-76
2023/11/13 09:18:32;;;;;;;7.95;5.95;;;;;;;9.15;75.94;98638.31;5032734;28;20049;-77
2023/11/13 09:20:59;;;;;;;11.88;6.28;;;;;;;9.16;76.05;98634.75;5032467;28;20045;-77
2023/11/13 09:23:26;;;;;;;8.60;6.57;;;;;;;9.17;75.89;98636.44;5032774;28;20082;-77
2023/11/13 09:25:53;;;;;;;9.50;6.78;;;;;;;9.18;75.72;98630.25;5015667;28;20128;-74
2023/11/13 09:28:19;;;;;;;8.45;6.32;;;;;;;9.19;75.96;98647.66;5032719;28;20564;-74
2023/11/13 09:30:46;;;;;;;9.35;6.35;;;;;;;9.18;75.83;98635.50;5032654;28;20104;-77
2023/11/13 09:33:13;;;;;;;9.70;6.50;;;;;;;9.18;75.92;98632.88;5032343;28;20058;-75
2023/11/13 09:35:39;;;;;;;9.07;6.90;;;;;;;9.19;75.96;98637.16;5033156;28;20104;-78
2023/11/13 09:38:09;;;;;;;9.75;6.63;;;;;;;9.19;76.04;98637.16;5032767;28;20049;-75
2023/11/13 09:40:35;;;;;;;7.60;6.50;;;;;;;9.20;76.01;98630.13;5033018;28;20049;-76
2023/11/13 09:43:14;;;;;;;8.77;6.68;;;;;;;9.21;76.19;98637.91;5032266;28;20049;-79
2023/11/13 09:45:47;;;;;;;8.65;5.97;;;;;;;9.19;75.80;98626.66;5032720;28;20060;-75
2023/11/13 09:48:26;;;;;;;12.10;6.65;;;;;;;9.22;76.21;98621.19;5015318;28;20057;-75
2023/11/13 09:50:57;;;;;;;7.80;6.15;;;;;;;9.23;76.05;98620.25;5032672;28;20115;-78
2023/11/13 09:53:26;;;;;;;9.88;6.18;;;;;;;9.24;76.39;98606.16;5032243;28;20049;-76
2023/11/13 09:55:53;;;;;;;7.90;5.93;;;;;;;9.25;76.34;98602.63;5032305;28;20046;-76
2023/11/13 09:58:21;;;;;;;8.13;6.53;;;;;;;9.25;76.35;98597.38;5032409;28;20092;-75
2023/11/13 10:00:48;;;;;;;7.32;5.82;;;;;;;9.28;76.42;98598.94;5014997;28;20081;-75
2023/11/13 10:03:16;;;;;;;11.60;6.18;;;;;;;9.29;76.72;98592.72;5032032;28;20053;-77
2023/11/13 10:05:44;;;;;;;7.63;5.72;;;;;;;9.29;76.63;98576.13;5031979;28;20494;-76
2023/11/13 10:08:11;;;;;;;6.40;5.53;;;;;;;9.31;76.55;98566.38;5031982;28;20053;-76
2023/11/13 10:10:40;;;;;;;6.95;5.57;;;;;;;9.32;76.86;98563.63;5031887;28;20498;-74
2023/11/13 10:13:11;;;;;;;9.13;5.60;;;;;;;9.35;76.87;98565.19;5032083;28;20123;-77
2023/11/13 10:15:42;;;;;;;6.38;5.72;;;;;;;9.38;77.13;98576.31;5032218;28;20064;-78
2023/11/13 10:18:12;;;;;;;9.80;5.90;;;;;;;9.41;77.38;98572.63;5031729;28;20132;-75
2023/11/13 10:20:45;;;;;;;8.38;6.38;;;;;;;9.44;76.86;98561.06;5031772;28;20068;-79
2023/11/13 10:23:14;;;;;;;9.65;6.70;;;;;;;9.50;77.13;98544.88;5031791;28;20065;-75
2023/11/13 10:25:45;;;;;;;7.93;6.38;;;;;;;9.54;76.96;98542.84;5032196;28;20656;-76
2023/11/13 10:28:14;;;;;;;8.23;6.35;;;;;;;9.58;77.19;98528.53;5031496;28;20057;-76
2023/11/13 10:30:58;;;;;;;8.77;6.78;;;;;;;9.58;76.49;98518.88;5032018;28;20462;-77
2023/11/13 10:33:26;;;;;;;8.55;6.72;;;;;;;9.65;77.10;98506.13;4994460;28;20430;-77
2023/11/13 10:35:56;;;;;;;8.48;6.57;;;;;;;9.68;76.98;98502.44;5011962;28;20053;-78
2023/11/13 10:38:24;;;;;;;8.32;6.70;;;;;;;9.71;76.95;98486.44;5021603;28;20086;-75
2023/11/13 10:40:55;;;;;;;8.25;6.85;;;;;;;9.71;76.77;98484.66;5031764;28;20143;-78
2023/11/13 10:43:30;;;;;;;9.38;6.85;;;;;;;9.72;76.79;98478.44;5031467;28;20064;-76
2023/11/13 10:45:58;;;;;;;6.95;6.15;;;;;;;9.79;77.38;98468.31;5031510;28;20501;-76
2023/11/13 10:48:41;;;;;;;8.40;6.75;;;;;;;9.78;76.94;98459.59;5031432;28;20060;-79
2023/11/13 10:51:09;;;;;;;7.43;6.60;;;;;;;9.87;77.69;98452.00;5011776;28;20054;-78
2023/11/13 10:53:39;;;;;;;8.80;6.40;;;;;;;9.92;77.71;98462.97;5019543;28;20395;-76
2023/11/13 10:56:07;;;;;;;9.55;6.82;;;;;;;9.96;77.86;98453.91;5031480;28;20051;-75
2023/11/13 10:58:34;;;;;;;8.32;7.28;;;;;;;10.00;77.94;98442.22;5030874;28;20135;-76
2023/11/13 11:01:05;;;;;;;11.75;7.20;;;;;;;10.06;77.79;98455.84;5013412;28;20057;-76
2023/11/13 11:03:33;;;;;;;12.07;7.05;;;;;;;10.11;77.71;98445.81;5031223;28;20068;-77
2023/11/13 11:06:06;;;;;;;10.60;7.10;;;;;;;10.14;77.73;98440.31;5031246;28;20557;-78
2023/11/13 11:08:34;;;;;;;9.07;6.97;;;;;;;10.18;77.74;98431.25;5031047;28;20053;-75
2023/11/13 11:11:03;;;;;;;8.68;6.85;;;;;;;10.22;77.74;98418.69;5030585;28;20084;-77
2023/11/13 11:13:34;;;;;;;8.50;7.13;;;;;;;10.26;77.70;98412.22;5030980;28;20053;-77
2023/11/13 11:16:16;;;;;;;11.30;7.90;;;;;;;10.29;77.51;98401.50;5012978;28;20053;-74
2023/11/13 11:19:29;;;;;;;9.77;7.18;;;;;;;10.33;77.24;98383.66;5030821;28;20092;-78
2023/11/13 11:22:09;;;;;;;8.93;6.80;;;;;;;10.38;77.46;98368.34;4994834;28;20129;-78
2023/11/13 11:25:05;;;;;;;9.52;7.57;;;;;;;10.41;77.65;98362.84;4994087;28;20042;-74
2023/11/13 11:27:42;;;;;;;8.05;7.18;;;;;;;10.46;77.89;98357.28;5011175;28;20565;-76
2023/11/13 11:30:18;;;;;;;8.05;6.38;;;;;;;10.50;77.58;98345.56;5020742;28;20045;-78
2023/11/13 11:32:52;;;;;;;7.97;7.05;;;;;;;10.53;77.65;98353.19;5030721;28;20049;-76
2023/11/13 11:35:21;;;;;;;7.68;6.28;;;;;;;10.57;78.10;98341.44;5030750;28;20050;-76
2023/11/13 11:38:22;;;;;;;6.25;5.57;;;;;;;10.57;77.63;98335.38;5030839;28;20395;-74
2023/11/13 11:40:49;;;;;;;7.38;5.57;;;;;;;10.63;77.92;98330.44;5030565;28;20406;-76
2023/11/13 11:43:23;;;;;;;7.53;5.68;;;;;;;10.63;77.75;98312.03;5030626;28;20132;-75